sensor_id;sensor_type;location;lat;lon;timestamp;P1;durP1;ratioP1;P2;durP2;ratioP2
20458;SDS011;10388;52.314;7.938;2024-01-16T00:00:50;3.60;;;2.00;;
20458;SDS011;10388;52.314;7.938;2024-01-16T00:03:21;2.53;;;1.70;;
20458;SDS011;10388;52.314;7.938;2024-01-16T00:05:51;3.40;;;1.40;;
20458;SDS011;10388;52.314;7.938;2024-01-16T00:08:22;4.97;;;2.17;;
20458;SDS011;10388;52.314;7.938;2024-01-16T00:10:52;3.80;;;1.50;;
20458;SDS011;10388;52.314;7.938;2024-01-16T00:13:23;2.57;;;1.60;;
20458;SDS011;10388;52.314;7.938;2024-01-16T00:15:53;3.63;;;1.83;;
20458;SDS011;10388;52.314;7.938;2024-01-16T00:18:24;4.17;;;1.87;;
20458;SDS011;10388;52.314;7.938;2024-01-16T00:20:54;6.13;;;2.03;;
20458;SDS011;10388;52.314;7.938;2024-01-16T00:23:25;1.87;;;1.27;;
20458;SDS011;10388;52.314;7.938;2024-01-16T00:25:55;6.17;;;1.83;;
20458;SDS011;10388;52.314;7.938;2024-01-16T00:28:26;2.77;;;1.50;;
20458;SDS011;10388;52.314;7.938;2024-01-16T00:30:57;3.70;;;1.30;;
20458;SDS011;10388;52.314;7.938;2024-01-16T00:33:27;3.23;;;1.80;;
20458;SDS011;10388;52.314;7.938;2024-01-16T00:35:58;4.67;;;1.10;;
20458;SDS011;10388;52.314;7.938;2024-01-16T00:38:28;2.67;;;1.33;;
20458;SDS011;10388;52.314;7.938;2024-01-16T00:40:59;3.53;;;1.40;;
20458;SDS011;10388;52.314;7.938;2024-01-16T00:43:29;2.80;;;1.60;;
20458;SDS011;10388;52.314;7.938;2024-01-16T00:46:00;4.50;;;1.50;;
20458;SDS011;10388;52.314;7.938;2024-01-16T00:48:30;5.63;;;1.60;;
20458;SDS011;10388;52.314;7.938;2024-01-16T00:51:01;3.47;;;1.70;;
20458;SDS011;10388;52.314;7.938;2024-01-16T00:53:32;4.30;;;1.60;;
20458;SDS011;10388;52.314;7.938;2024-01-16T00:56:02;3.33;;;1.50;;
20458;SDS011;10388;52.314;7.938;2024-01-16T00:58:33;4.83;;;1.83;;
20458;SDS011;10388;52.314;7.938;2024-01-16T01:01:03;4.97;;;2.20;;
20458;SDS011;10388;52.314;7.938;2024-01-16T01:03:34;9.17;;;2.10;;
20458;SDS011;10388;52.314;7.938;2024-01-16T01:06:05;5.60;;;2.00;;
20458;SDS011;10388;52.314;7.938;2024-01-16T01:08:35;4.43;;;1.70;;
20458;SDS011;10388;52.314;7.938;2024-01-16T01:11:06;3.80;;;1.63;;
20458;SDS011;10388;52.314;7.938;2024-01-16T01:13:36;5.30;;;1.63;;
20458;SDS011;10388;52.314;7.938;2024-01-16T01:16:07;8.03;;;2.27;;
20458;SDS011;10388;52.314;7.938;2024-01-16T01:18:38;4.43;;;2.07;;
20458;SDS011;10388;52.314;7.938;2024-01-16T01:21:09;4.17;;;1.80;;
20458;SDS011;10388;52.314;7.938;2024-01-16T01:23:39;5.67;;;1.50;;
20458;SDS011;10388;52.314;7.938;2024-01-16T01:26:10;3.03;;;1.90;;
20458;SDS011;10388;52.314;7.938;2024-01-16T01:28:43;3.37;;;1.70;;
20458;SDS011;10388;52.314;7.938;2024-01-16T01:49:54;3.13;;;1.70;;
20458;SDS011;10388;52.314;7.938;2024-01-16T01:52:48;6.37;;;2.57;;
20458;SDS011;10388;52.314;7.938;2024-01-16T01:55:25;7.37;;;1.97;;
20458;SDS011;10388;52.314;7.938;2024-01-16T01:58:12;6.60;;;2.13;;
20458;SDS011;10388;52.314;7.938;2024-01-16T02:01:11;5.63;;;2.00;;
20458;SDS011;10388;52.314;7.938;2024-01-16T02:04:02;4.67;;;2.03;;
20458;SDS011;10388;52.314;7.938;2024-01-16T02:06:43;8.93;;;2.03;;
20458;SDS011;10388;52.314;7.938;2024-01-16T02:09:23;5.80;;;2.57;;
20458;SDS011;10388;52.314;7.938;2024-01-16T02:12:20;3.67;;;2.00;;
20458;SDS011;10388;52.314;7.938;2024-01-16T02:15:08;2.70;;;1.90;;
20458;SDS011;10388;52.314;7.938;2024-01-16T02:17:53;8.07;;;3.13;;
20458;SDS011;10388;52.314;7.938;2024-01-16T02:20:29;4.43;;;2.20;;
20458;SDS011;10388;52.314;7.938;2024-01-16T02:23:14;3.00;;;2.40;;
20458;SDS011;10388;52.314;7.938;2024-01-16T02:29:20;3.77;;;2.40;;
20458;SDS011;10388;52.314;7.938;2024-01-16T02:32:13;5.33;;;2.30;;
20458;SDS011;10388;52.314;7.938;2024-01-16T02:40:55;4.90;;;2.87;;
20458;SDS011;10388;52.314;7.938;2024-01-16T02:43:34;7.40;;;2.80;;
20458;SDS011;10388;52.314;7.938;2024-01-16T02:46:27;4.30;;;2.27;;
20458;SDS011;10388;52.314;7.938;2024-01-16T02:49:09;5.30;;;3.03;;
20458;SDS011;10388;52.314;7.938;2024-01-16T02:51:42;4.17;;;2.57;;
20458;SDS011;10388;52.314;7.938;2024-01-16T02:54:20;5.37;;;2.57;;
20458;SDS011;10388;52.314;7.938;2024-01-16T02:56:54;4.77;;;2.60;;
20458;SDS011;10388;52.314;7.938;2024-01-16T02:59:25;3.87;;;2.40;;
20458;SDS011;10388;52.314;7.938;2024-01-16T03:01:58;7.23;;;2.50;;
20458;SDS011;10388;52.314;7.938;2024-01-16T03:04:46;5.00;;;2.03;;
20458;SDS011;10388;52.314;7.938;2024-01-16T03:07:28;4.37;;;2.20;;
20458;SDS011;10388;52.314;7.938;2024-01-16T03:10:14;5.33;;;2.50;;
20458;SDS011;10388;52.314;7.938;2024-01-16T03:16:00;5.47;;;2.50;;
20458;SDS011;10388;52.314;7.938;2024-01-16T03:18:38;5.77;;;2.97;;
20458;SDS011;10388;52.314;7.938;2024-01-16T03:21:20;6.20;;;2.37;;
20458;SDS011;10388;52.314;7.938;2024-01-16T03:27:06;6.30;;;2.30;;
20458;SDS011;10388;52.314;7.938;2024-01-16T03:29:40;7.53;;;2.30;;
20458;SDS011;10388;52.314;7.938;2024-01-16T03:32:28;5.97;;;2.50;;
20458;SDS011;10388;52.314;7.938;2024-01-16T03:35:12;7.07;;;2.87;;
20458;SDS011;10388;52.314;7.938;2024-01-16T03:44:43;4.23;;;2.50;;
20458;SDS011;10388;52.314;7.938;2024-01-16T03:47:13;6.27;;;2.50;;
20458;SDS011;10388;52.314;7.938;2024-01-16T03:49:49;4.27;;;2.90;;
20458;SDS011;10388;52.314;7.938;2024-01-16T03:52:23;4.70;;;3.37;;
20458;SDS011;10388;52.314;7.938;2024-01-16T03:55:18;6.60;;;2.97;;
20458;SDS011;10388;52.314;7.938;2024-01-16T03:58:08;6.60;;;3.40;;
20458;SDS011;10388;52.314;7.938;2024-01-16T04:00:41;7.67;;;2.77;;
20458;SDS011;10388;52.314;7.938;2024-01-16T04:06:23;5.37;;;3.00;;
20458;SDS011;10388;52.314;7.938;2024-01-16T04:11:52;4.77;;;3.10;;
20458;SDS011;10388;52.314;7.938;2024-01-16T04:14:32;11.00;;;3.90;;
20458;SDS011;10388;52.314;7.938;2024-01-16T04:17:05;6.83;;;3.10;;
20458;SDS011;10388;52.314;7.938;2024-01-16T04:19:44;9.00;;;2.83;;
20458;SDS011;10388;52.314;7.938;2024-01-16T04:22:50;6.10;;;3.10;;
20458;SDS011;10388;52.314;7.938;2024-01-16T04:25:47;9.43;;;5.27;;
20458;SDS011;10388;52.314;7.938;2024-01-16T04:29:01;8.67;;;3.63;;
20458;SDS011;10388;52.314;7.938;2024-01-16T04:31:42;7.20;;;3.90;;
20458;SDS011;10388;52.314;7.938;2024-01-16T04:37:58;8.40;;;3.63;;
20458;SDS011;10388;52.314;7.938;2024-01-16T04:40:50;7.87;;;3.80;;
20458;SDS011;10388;52.314;7.938;2024-01-16T04:43:23;4.47;;;3.60;;
20458;SDS011;10388;52.314;7.938;2024-01-16T04:45:54;8.87;;;3.57;;
20458;SDS011;10388;52.314;7.938;2024-01-16T04:48:24;5.63;;;3.60;;
20458;SDS011;10388;52.314;7.938;2024-01-16T04:50:55;4.00;;;3.20;;
20458;SDS011;10388;52.314;7.938;2024-01-16T04:53:25;7.60;;;3.43;;
20458;SDS011;10388;52.314;7.938;2024-01-16T04:55:56;7.70;;;3.40;;
20458;SDS011;10388;52.314;7.938;2024-01-16T04:58:26;5.67;;;3.30;;
20458;SDS011;10388;52.314;7.938;2024-01-16T05:00:57;6.50;;;3.33;;
20458;SDS011;10388;52.314;7.938;2024-01-16T05:03:28;7.13;;;3.40;;
20458;SDS011;10388;52.314;7.938;2024-01-16T05:05:58;7.97;;;3.53;;
20458;SDS011;10388;52.314;7.938;2024-01-16T05:08:29;5.67;;;3.67;;
20458;SDS011;10388;52.314;7.938;2024-01-16T05:11:00;7.27;;;3.30;;
20458;SDS011;10388;52.314;7.938;2024-01-16T05:13:31;6.87;;;3.67;;
20458;SDS011;10388;52.314;7.938;2024-01-16T05:16:01;5.17;;;3.20;;
20458;SDS011;10388;52.314;7.938;2024-01-16T05:18:32;4.73;;;3.20;;
20458;SDS011;10388;52.314;7.938;2024-01-16T05:21:05;5.70;;;3.20;;
20458;SDS011;10388;52.314;7.938;2024-01-16T05:23:37;5.13;;;3.17;;
20458;SDS011;10388;52.314;7.938;2024-01-16T05:26:07;6.00;;;3.90;;
20458;SDS011;10388;52.314;7.938;2024-01-16T05:28:40;9.00;;;4.40;;
20458;SDS011;10388;52.314;7.938;2024-01-16T05:31:11;6.80;;;3.67;;
20458;SDS011;10388;52.314;7.938;2024-01-16T05:33:42;7.47;;;4.07;;
20458;SDS011;10388;52.314;7.938;2024-01-16T05:36:13;7.67;;;3.97;;
20458;SDS011;10388;52.314;7.938;2024-01-16T05:38:44;5.50;;;3.90;;
20458;SDS011;10388;52.314;7.938;2024-01-16T05:41:14;5.93;;;3.73;;
20458;SDS011;10388;52.314;7.938;2024-01-16T05:43:45;7.83;;;4.13;;
20458;SDS011;10388;52.314;7.938;2024-01-16T05:46:16;9.43;;;4.40;;
20458;SDS011;10388;52.314;7.938;2024-01-16T05:48:47;6.43;;;4.40;;
20458;SDS011;10388;52.314;7.938;2024-01-16T05:51:18;5.47;;;4.10;;
20458;SDS011;10388;52.314;7.938;2024-01-16T05:53:48;5.10;;;4.10;;
20458;SDS011;10388;52.314;7.938;2024-01-16T05:56:19;8.73;;;4.57;;
20458;SDS011;10388;52.314;7.938;2024-01-16T05:58:49;9.63;;;4.67;;
20458;SDS011;10388;52.314;7.938;2024-01-16T06:01:22;9.07;;;4.67;;
20458;SDS011;10388;52.314;7.938;2024-01-16T06:03:52;8.03;;;4.63;;
20458;SDS011;10388;52.314;7.938;2024-01-16T06:06:23;10.43;;;6.03;;
20458;SDS011;10388;52.314;7.938;2024-01-16T06:08:53;9.40;;;5.43;;
20458;SDS011;10388;52.314;7.938;2024-01-16T06:11:33;11.17;;;5.23;;
20458;SDS011;10388;52.314;7.938;2024-01-16T06:14:04;9.93;;;5.07;;
20458;SDS011;10388;52.314;7.938;2024-01-16T06:16:35;13.43;;;5.13;;
20458;SDS011;10388;52.314;7.938;2024-01-16T06:19:06;8.73;;;5.43;;
20458;SDS011;10388;52.314;7.938;2024-01-16T06:21:38;8.10;;;5.77;;
20458;SDS011;10388;52.314;7.938;2024-01-16T06:24:09;9.07;;;5.20;;
20458;SDS011;10388;52.314;7.938;2024-01-16T06:26:41;8.80;;;5.27;;
20458;SDS011;10388;52.314;7.938;2024-01-16T06:29:12;13.60;;;6.10;;
20458;SDS011;10388;52.314;7.938;2024-01-16T06:31:42;10.37;;;5.50;;
20458;SDS011;10388;52.314;7.938;2024-01-16T06:34:13;12.93;;;6.60;;
20458;SDS011;10388;52.314;7.938;2024-01-16T06:36:43;9.60;;;5.20;;
20458;SDS011;10388;52.314;7.938;2024-01-16T06:39:14;14.23;;;6.13;;
20458;SDS011;10388;52.314;7.938;2024-01-16T06:41:45;11.37;;;5.43;;
20458;SDS011;10388;52.314;7.938;2024-01-16T06:44:16;8.07;;;5.80;;
20458;SDS011;10388;52.314;7.938;2024-01-16T06:46:47;10.23;;;6.13;;
20458;SDS011;10388;52.314;7.938;2024-01-16T06:49:18;9.00;;;5.47;;
20458;SDS011;10388;52.314;7.938;2024-01-16T06:51:48;7.33;;;5.20;;
20458;SDS011;10388;52.314;7.938;2024-01-16T06:54:19;10.30;;;5.77;;
20458;SDS011;10388;52.314;7.938;2024-01-16T06:56:50;8.10;;;5.80;;
20458;SDS011;10388;52.314;7.938;2024-01-16T06:59:21;9.47;;;5.80;;
20458;SDS011;10388;52.314;7.938;2024-01-16T07:01:51;9.10;;;5.87;;
20458;SDS011;10388;52.314;7.938;2024-01-16T07:04:22;7.30;;;5.57;;
20458;SDS011;10388;52.314;7.938;2024-01-16T07:06:53;11.30;;;5.80;;
20458;SDS011;10388;52.314;7.938;2024-01-16T07:09:23;8.37;;;5.73;;
20458;SDS011;10388;52.314;7.938;2024-01-16T07:11:54;11.87;;;5.90;;
20458;SDS011;10388;52.314;7.938;2024-01-16T07:14:25;12.90;;;6.70;;
20458;SDS011;10388;52.314;7.938;2024-01-16T07:16:55;9.63;;;6.67;;
20458;SDS011;10388;52.314;7.938;2024-01-16T07:19:26;10.23;;;6.33;;
20458;SDS011;10388;52.314;7.938;2024-01-16T07:21:56;15.00;;;7.33;;
20458;SDS011;10388;52.314;7.938;2024-01-16T07:24:27;12.37;;;6.77;;
20458;SDS011;10388;52.314;7.938;2024-01-16T07:26:57;8.17;;;6.23;;
20458;SDS011;10388;52.314;7.938;2024-01-16T07:29:28;11.27;;;5.73;;
20458;SDS011;10388;52.314;7.938;2024-01-16T07:31:58;14.77;;;6.23;;
20458;SDS011;10388;52.314;7.938;2024-01-16T07:34:29;8.37;;;6.47;;
20458;SDS011;10388;52.314;7.938;2024-01-16T07:36:59;9.50;;;5.67;;
20458;SDS011;10388;52.314;7.938;2024-01-16T07:39:30;10.00;;;6.33;;
20458;SDS011;10388;52.314;7.938;2024-01-16T07:42:00;11.93;;;7.30;;
20458;SDS011;10388;52.314;7.938;2024-01-16T07:44:31;10.77;;;6.60;;
20458;SDS011;10388;52.314;7.938;2024-01-16T07:47:02;13.60;;;7.53;;
20458;SDS011;10388;52.314;7.938;2024-01-16T07:49:33;11.90;;;7.00;;
20458;SDS011;10388;52.314;7.938;2024-01-16T07:52:04;10.67;;;6.33;;
20458;SDS011;10388;52.314;7.938;2024-01-16T07:54:35;10.37;;;6.30;;
20458;SDS011;10388;52.314;7.938;2024-01-16T07:57:05;12.70;;;6.30;;
20458;SDS011;10388;52.314;7.938;2024-01-16T07:59:36;8.67;;;6.10;;
20458;SDS011;10388;52.314;7.938;2024-01-16T08:02:07;8.97;;;6.13;;
20458;SDS011;10388;52.314;7.938;2024-01-16T08:04:39;12.47;;;5.97;;
20458;SDS011;10388;52.314;7.938;2024-01-16T08:07:09;11.07;;;6.30;;
20458;SDS011;10388;52.314;7.938;2024-01-16T08:09:40;12.27;;;6.47;;
20458;SDS011;10388;52.314;7.938;2024-01-16T08:12:10;7.97;;;5.80;;
20458;SDS011;10388;52.314;7.938;2024-01-16T08:14:41;9.80;;;5.67;;
20458;SDS011;10388;52.314;7.938;2024-01-16T08:17:13;8.47;;;5.70;;
20458;SDS011;10388;52.314;7.938;2024-01-16T08:19:43;10.13;;;5.37;;
20458;SDS011;10388;52.314;7.938;2024-01-16T08:22:14;9.13;;;5.30;;
20458;SDS011;10388;52.314;7.938;2024-01-16T08:24:44;10.73;;;5.33;;
20458;SDS011;10388;52.314;7.938;2024-01-16T08:27:15;6.97;;;5.43;;
20458;SDS011;10388;52.314;7.938;2024-01-16T08:29:46;8.27;;;4.87;;
20458;SDS011;10388;52.314;7.938;2024-01-16T08:32:19;9.30;;;4.67;;
20458;SDS011;10388;52.314;7.938;2024-01-16T08:34:50;8.90;;;5.03;;
20458;SDS011;10388;52.314;7.938;2024-01-16T08:37:21;8.73;;;4.50;;
20458;SDS011;10388;52.314;7.938;2024-01-16T08:39:51;6.33;;;4.77;;
20458;SDS011;10388;52.314;7.938;2024-01-16T08:42:22;9.00;;;5.20;;
20458;SDS011;10388;52.314;7.938;2024-01-16T08:44:52;8.10;;;5.13;;
20458;SDS011;10388;52.314;7.938;2024-01-16T08:47:23;6.63;;;4.50;;
20458;SDS011;10388;52.314;7.938;2024-01-16T08:49:53;7.57;;;4.10;;
20458;SDS011;10388;52.314;7.938;2024-01-16T08:52:24;7.93;;;4.90;;
20458;SDS011;10388;52.314;7.938;2024-01-16T08:54:55;8.27;;;4.73;;
20458;SDS011;10388;52.314;7.938;2024-01-16T08:57:25;6.20;;;4.47;;
20458;SDS011;10388;52.314;7.938;2024-01-16T08:59:56;8.10;;;4.10;;
20458;SDS011;10388;52.314;7.938;2024-01-16T09:02:26;7.03;;;4.73;;
20458;SDS011;10388;52.314;7.938;2024-01-16T09:05:00;6.03;;;4.47;;
20458;SDS011;10388;52.314;7.938;2024-01-16T09:07:31;6.57;;;4.67;;
20458;SDS011;10388;52.314;7.938;2024-01-16T09:10:02;7.67;;;5.07;;
20458;SDS011;10388;52.314;7.938;2024-01-16T09:12:33;7.73;;;4.77;;
20458;SDS011;10388;52.314;7.938;2024-01-16T09:15:04;5.77;;;4.30;;
20458;SDS011;10388;52.314;7.938;2024-01-16T09:17:35;7.27;;;4.40;;
20458;SDS011;10388;52.314;7.938;2024-01-16T09:20:06;8.60;;;4.60;;
20458;SDS011;10388;52.314;7.938;2024-01-16T09:22:37;7.40;;;5.37;;
20458;SDS011;10388;52.314;7.938;2024-01-16T09:25:08;5.80;;;4.63;;
20458;SDS011;10388;52.314;7.938;2024-01-16T09:27:38;5.90;;;4.60;;
20458;SDS011;10388;52.314;7.938;2024-01-16T09:30:09;6.90;;;4.60;;
20458;SDS011;10388;52.314;7.938;2024-01-16T09:32:39;6.73;;;4.23;;
20458;SDS011;10388;52.314;7.938;2024-01-16T09:35:10;12.47;;;5.13;;
20458;SDS011;10388;52.314;7.938;2024-01-16T09:37:41;9.20;;;5.03;;
20458;SDS011;10388;52.314;7.938;2024-01-16T09:40:11;5.87;;;4.93;;
20458;SDS011;10388;52.314;7.938;2024-01-16T09:42:43;7.07;;;4.50;;
20458;SDS011;10388;52.314;7.938;2024-01-16T09:45:15;7.20;;;4.53;;
20458;SDS011;10388;52.314;7.938;2024-01-16T09:47:51;7.33;;;4.57;;
20458;SDS011;10388;52.314;7.938;2024-01-16T09:50:22;5.40;;;4.40;;
20458;SDS011;10388;52.314;7.938;2024-01-16T09:52:52;6.00;;;4.40;;
20458;SDS011;10388;52.314;7.938;2024-01-16T09:55:23;6.47;;;4.67;;
20458;SDS011;10388;52.314;7.938;2024-01-16T09:57:54;10.03;;;4.60;;
20458;SDS011;10388;52.314;7.938;2024-01-16T10:00:25;8.20;;;4.90;;
20458;SDS011;10388;52.314;7.938;2024-01-16T10:02:57;6.33;;;5.30;;
20458;SDS011;10388;52.314;7.938;2024-01-16T10:05:29;7.00;;;5.60;;
20458;SDS011;10388;52.314;7.938;2024-01-16T10:08:00;6.03;;;4.53;;
20458;SDS011;10388;52.314;7.938;2024-01-16T10:10:30;4.90;;;4.40;;
20458;SDS011;10388;52.314;7.938;2024-01-16T10:13:01;8.83;;;5.67;;
20458;SDS011;10388;52.314;7.938;2024-01-16T10:15:33;8.80;;;5.80;;
20458;SDS011;10388;52.314;7.938;2024-01-16T10:18:04;7.53;;;5.13;;
20458;SDS011;10388;52.314;7.938;2024-01-16T10:20:35;8.90;;;4.93;;
20458;SDS011;10388;52.314;7.938;2024-01-16T10:23:06;12.27;;;6.40;;
20458;SDS011;10388;52.314;7.938;2024-01-16T10:25:36;5.60;;;4.17;;
20458;SDS011;10388;52.314;7.938;2024-01-16T10:28:07;8.23;;;4.30;;
20458;SDS011;10388;52.314;7.938;2024-01-16T10:30:41;4.77;;;3.97;;
20458;SDS011;10388;52.314;7.938;2024-01-16T10:33:15;11.10;;;5.20;;
20458;SDS011;10388;52.314;7.938;2024-01-16T10:35:46;8.67;;;4.43;;
20458;SDS011;10388;52.314;7.938;2024-01-16T10:38:20;5.27;;;3.90;;
20458;SDS011;10388;52.314;7.938;2024-01-16T10:41:05;7.87;;;4.13;;
20458;SDS011;10388;52.314;7.938;2024-01-16T10:43:40;6.30;;;4.23;;
20458;SDS011;10388;52.314;7.938;2024-01-16T10:48:59;7.03;;;4.27;;
20458;SDS011;10388;52.314;7.938;2024-01-16T10:51:31;9.57;;;4.43;;
20458;SDS011;10388;52.314;7.938;2024-01-16T10:54:02;11.00;;;4.50;;
20458;SDS011;10388;52.314;7.938;2024-01-16T10:56:43;6.90;;;4.03;;
20458;SDS011;10388;52.314;7.938;2024-01-16T10:59:19;7.50;;;4.10;;
20458;SDS011;10388;52.314;7.938;2024-01-16T11:01:58;6.53;;;4.33;;
20458;SDS011;10388;52.314;7.938;2024-01-16T11:04:31;4.90;;;4.20;;
20458;SDS011;10388;52.314;7.938;2024-01-16T11:07:02;4.97;;;4.00;;
20458;SDS011;10388;52.314;7.938;2024-01-16T11:09:34;5.90;;;4.53;;
20458;SDS011;10388;52.314;7.938;2024-01-16T11:12:06;5.03;;;4.20;;
20458;SDS011;10388;52.314;7.938;2024-01-16T11:14:38;8.10;;;4.73;;
20458;SDS011;10388;52.314;7.938;2024-01-16T11:17:09;5.83;;;4.23;;
20458;SDS011;10388;52.314;7.938;2024-01-16T11:19:47;5.93;;;4.20;;
20458;SDS011;10388;52.314;7.938;2024-01-16T11:22:18;6.57;;;4.93;;
20458;SDS011;10388;52.314;7.938;2024-01-16T11:25:08;8.60;;;5.17;;
20458;SDS011;10388;52.314;7.938;2024-01-16T11:27:41;8.57;;;5.30;;
20458;SDS011;10388;52.314;7.938;2024-01-16T11:30:12;8.00;;;5.00;;
20458;SDS011;10388;52.314;7.938;2024-01-16T11:32:59;8.13;;;5.30;;
20458;SDS011;10388;52.314;7.938;2024-01-16T11:35:33;10.97;;;6.33;;
20458;SDS011;10388;52.314;7.938;2024-01-16T11:38:08;7.67;;;6.03;;
20458;SDS011;10388;52.314;7.938;2024-01-16T11:40:50;9.10;;;6.20;;
20458;SDS011;10388;52.314;7.938;2024-01-16T11:46:06;8.10;;;6.03;;
20458;SDS011;10388;52.314;7.938;2024-01-16T11:48:38;12.20;;;7.40;;
20458;SDS011;10388;52.314;7.938;2024-01-16T11:51:21;13.07;;;8.13;;
20458;SDS011;10388;52.314;7.938;2024-01-16T11:53:54;9.03;;;7.57;;
20458;SDS011;10388;52.314;7.938;2024-01-16T11:56:31;12.37;;;9.07;;
20458;SDS011;10388;52.314;7.938;2024-01-16T11:59:27;14.23;;;8.30;;
20458;SDS011;10388;52.314;7.938;2024-01-16T12:02:18;10.87;;;8.60;;
20458;SDS011;10388;52.314;7.938;2024-01-16T12:04:52;11.63;;;8.30;;
20458;SDS011;10388;52.314;7.938;2024-01-16T12:07:26;9.93;;;8.50;;
20458;SDS011;10388;52.314;7.938;2024-01-16T12:10:00;10.33;;;8.47;;
20458;SDS011;10388;52.314;7.938;2024-01-16T12:12:31;14.63;;;8.87;;
20458;SDS011;10388;52.314;7.938;2024-01-16T12:15:02;17.33;;;8.73;;
20458;SDS011;10388;52.314;7.938;2024-01-16T12:17:34;11.53;;;7.73;;
20458;SDS011;10388;52.314;7.938;2024-01-16T12:20:15;9.03;;;7.70;;
20458;SDS011;10388;52.314;7.938;2024-01-16T12:22:53;12.23;;;8.30;;
20458;SDS011;10388;52.314;7.938;2024-01-16T12:25:24;10.20;;;8.00;;
20458;SDS011;10388;52.314;7.938;2024-01-16T12:28:05;12.73;;;9.10;;
20458;SDS011;10388;52.314;7.938;2024-01-16T12:30:37;14.47;;;8.60;;
20458;SDS011;10388;52.314;7.938;2024-01-16T12:33:09;10.90;;;7.77;;
20458;SDS011;10388;52.314;7.938;2024-01-16T12:35:41;10.00;;;7.30;;
20458;SDS011;10388;52.314;7.938;2024-01-16T12:38:15;10.13;;;7.10;;
20458;SDS011;10388;52.314;7.938;2024-01-16T12:40:47;9.23;;;6.70;;
20458;SDS011;10388;52.314;7.938;2024-01-16T12:43:20;9.33;;;6.57;;
20458;SDS011;10388;52.314;7.938;2024-01-16T12:45:54;8.83;;;6.37;;
20458;SDS011;10388;52.314;7.938;2024-01-16T12:48:25;9.37;;;6.30;;
20458;SDS011;10388;52.314;7.938;2024-01-16T12:50:59;7.23;;;5.80;;
20458;SDS011;10388;52.314;7.938;2024-01-16T12:53:34;10.23;;;5.30;;
20458;SDS011;10388;52.314;7.938;2024-01-16T12:56:06;6.67;;;5.63;;
20458;SDS011;10388;52.314;7.938;2024-01-16T12:58:38;6.57;;;5.27;;
20458;SDS011;10388;52.314;7.938;2024-01-16T13:03:54;9.43;;;5.40;;
20458;SDS011;10388;52.314;7.938;2024-01-16T13:06:25;6.90;;;5.00;;
20458;SDS011;10388;52.314;7.938;2024-01-16T13:09:04;5.63;;;4.83;;
20458;SDS011;10388;52.314;7.938;2024-01-16T13:11:49;5.30;;;4.63;;
20458;SDS011;10388;52.314;7.938;2024-01-16T13:14:21;11.40;;;6.03;;
20458;SDS011;10388;52.314;7.938;2024-01-16T13:16:52;7.83;;;5.03;;
20458;SDS011;10388;52.314;7.938;2024-01-16T13:19:26;10.67;;;4.80;;
20458;SDS011;10388;52.314;7.938;2024-01-16T13:21:59;5.07;;;3.63;;
20458;SDS011;10388;52.314;7.938;2024-01-16T13:24:29;7.00;;;4.80;;
20458;SDS011;10388;52.314;7.938;2024-01-16T13:27:00;9.97;;;4.67;;
20458;SDS011;10388;52.314;7.938;2024-01-16T13:29:30;9.07;;;4.23;;
20458;SDS011;10388;52.314;7.938;2024-01-16T13:32:05;9.30;;;4.67;;
20458;SDS011;10388;52.314;7.938;2024-01-16T13:34:36;6.10;;;4.27;;
20458;SDS011;10388;52.314;7.938;2024-01-16T13:37:08;9.57;;;4.30;;
20458;SDS011;10388;52.314;7.938;2024-01-16T13:39:38;5.13;;;4.03;;
20458;SDS011;10388;52.314;7.938;2024-01-16T13:42:10;7.33;;;3.77;;
20458;SDS011;10388;52.314;7.938;2024-01-16T13:44:40;7.90;;;4.03;;
20458;SDS011;10388;52.314;7.938;2024-01-16T13:47:11;5.97;;;3.97;;
20458;SDS011;10388;52.314;7.938;2024-01-16T13:49:41;5.23;;;3.80;;
20458;SDS011;10388;52.314;7.938;2024-01-16T13:52:12;4.43;;;3.90;;
20458;SDS011;10388;52.314;7.938;2024-01-16T13:54:42;8.77;;;4.70;;
20458;SDS011;10388;52.314;7.938;2024-01-16T13:57:13;10.63;;;4.50;;
20458;SDS011;10388;52.314;7.938;2024-01-16T13:59:44;6.87;;;3.50;;
20458;SDS011;10388;52.314;7.938;2024-01-16T14:02:14;4.93;;;3.47;;
20458;SDS011;10388;52.314;7.938;2024-01-16T14:04:45;5.57;;;3.27;;
20458;SDS011;10388;52.314;7.938;2024-01-16T14:07:16;6.17;;;3.77;;
20458;SDS011;10388;52.314;7.938;2024-01-16T14:09:46;7.80;;;3.80;;
20458;SDS011;10388;52.314;7.938;2024-01-16T14:12:17;5.80;;;3.70;;
20458;SDS011;10388;52.314;7.938;2024-01-16T14:14:48;4.97;;;3.70;;
20458;SDS011;10388;52.314;7.938;2024-01-16T14:17:19;4.67;;;3.60;;
20458;SDS011;10388;52.314;7.938;2024-01-16T14:19:50;3.60;;;3.27;;
20458;SDS011;10388;52.314;7.938;2024-01-16T14:22:20;6.43;;;3.90;;
20458;SDS011;10388;52.314;7.938;2024-01-16T14:24:51;5.43;;;3.50;;
20458;SDS011;10388;52.314;7.938;2024-01-16T14:27:21;7.27;;;4.10;;
20458;SDS011;10388;52.314;7.938;2024-01-16T14:29:52;3.40;;;3.10;;
20458;SDS011;10388;52.314;7.938;2024-01-16T14:32:22;5.67;;;4.00;;
20458;SDS011;10388;52.314;7.938;2024-01-16T14:34:52;6.50;;;4.10;;
20458;SDS011;10388;52.314;7.938;2024-01-16T14:37:23;4.67;;;3.43;;
20458;SDS011;10388;52.314;7.938;2024-01-16T14:39:54;7.80;;;5.00;;
20458;SDS011;10388;52.314;7.938;2024-01-16T14:42:24;9.83;;;6.70;;
20458;SDS011;10388;52.314;7.938;2024-01-16T14:44:55;9.63;;;6.17;;
20458;SDS011;10388;52.314;7.938;2024-01-16T14:47:26;7.37;;;4.90;;
20458;SDS011;10388;52.314;7.938;2024-01-16T14:49:56;8.40;;;5.13;;
20458;SDS011;10388;52.314;7.938;2024-01-16T14:52:27;10.40;;;6.63;;
20458;SDS011;10388;52.314;7.938;2024-01-16T14:55:01;6.73;;;4.57;;
20458;SDS011;10388;52.314;7.938;2024-01-16T14:57:33;7.13;;;4.10;;
20458;SDS011;10388;52.314;7.938;2024-01-16T15:00:12;7.63;;;4.10;;
20458;SDS011;10388;52.314;7.938;2024-01-16T15:02:50;6.53;;;4.10;;
20458;SDS011;10388;52.314;7.938;2024-01-16T15:05:21;5.77;;;4.20;;
20458;SDS011;10388;52.314;7.938;2024-01-16T15:07:51;6.00;;;3.83;;
20458;SDS011;10388;52.314;7.938;2024-01-16T15:10:22;5.17;;;3.90;;
20458;SDS011;10388;52.314;7.938;2024-01-16T15:12:52;5.13;;;3.50;;
20458;SDS011;10388;52.314;7.938;2024-01-16T15:15:23;5.10;;;4.00;;
20458;SDS011;10388;52.314;7.938;2024-01-16T15:17:54;6.20;;;4.43;;
20458;SDS011;10388;52.314;7.938;2024-01-16T15:20:24;7.03;;;4.03;;
20458;SDS011;10388;52.314;7.938;2024-01-16T15:22:55;7.10;;;3.90;;
20458;SDS011;10388;52.314;7.938;2024-01-16T15:25:26;5.67;;;4.07;;
20458;SDS011;10388;52.314;7.938;2024-01-16T15:27:57;4.50;;;3.20;;
20458;SDS011;10388;52.314;7.938;2024-01-16T15:30:27;5.00;;;3.40;;
20458;SDS011;10388;52.314;7.938;2024-01-16T15:33:02;6.13;;;3.40;;
20458;SDS011;10388;52.314;7.938;2024-01-16T15:35:34;7.33;;;3.47;;
20458;SDS011;10388;52.314;7.938;2024-01-16T15:38:04;6.40;;;3.70;;
20458;SDS011;10388;52.314;7.938;2024-01-16T15:40:35;4.60;;;3.43;;
20458;SDS011;10388;52.314;7.938;2024-01-16T15:43:05;10.50;;;3.70;;
20458;SDS011;10388;52.314;7.938;2024-01-16T15:45:36;4.53;;;3.43;;
20458;SDS011;10388;52.314;7.938;2024-01-16T15:48:06;4.60;;;3.60;;
20458;SDS011;10388;52.314;7.938;2024-01-16T15:50:38;4.77;;;3.60;;
20458;SDS011;10388;52.314;7.938;2024-01-16T15:53:09;5.53;;;3.27;;
20458;SDS011;10388;52.314;7.938;2024-01-16T15:55:39;5.60;;;3.67;;
20458;SDS011;10388;52.314;7.938;2024-01-16T15:58:10;5.00;;;3.33;;
20458;SDS011;10388;52.314;7.938;2024-01-16T16:00:40;4.80;;;3.37;;
20458;SDS011;10388;52.314;7.938;2024-01-16T16:03:11;6.90;;;4.20;;
20458;SDS011;10388;52.314;7.938;2024-01-16T16:05:41;6.13;;;3.77;;
20458;SDS011;10388;52.314;7.938;2024-01-16T16:08:12;7.50;;;3.63;;
20458;SDS011;10388;52.314;7.938;2024-01-16T16:10:42;6.13;;;4.00;;
20458;SDS011;10388;52.314;7.938;2024-01-16T16:13:13;5.30;;;3.80;;
20458;SDS011;10388;52.314;7.938;2024-01-16T16:15:43;4.97;;;3.50;;
20458;SDS011;10388;52.314;7.938;2024-01-16T16:18:15;6.97;;;3.63;;
20458;SDS011;10388;52.314;7.938;2024-01-16T16:20:45;5.60;;;3.73;;